createdAt,value
2022-11-24T08:29:33.746Z,94721.00
2022-11-24T08:29:48.746Z,94723.00
2022-11-24T08:30:03.707Z,94723.00
2022-11-24T08:30:19.691Z,94723.00
2022-11-24T08:30:41.746Z,94727.00
2022-11-24T08:30:55.961Z,94725.00
2022-11-24T08:31:05.895Z,94725.00
2022-11-24T08:31:22.605Z,94727.00
2022-11-24T08:31:34.114Z,94725.00
2022-11-24T08:31:48.902Z,94725.00
2022-11-24T08:32:03.811Z,94723.00
2022-11-24T08:32:22.327Z,94723.00
2022-11-24T08:32:33.960Z,94727.00
2022-11-24T08:32:53.466Z,94725.00
2022-11-24T08:33:03.749Z,94728.00
2022-11-24T08:33:20.927Z,94723.00
2022-11-24T08:33:33.752Z,94725.00
2022-11-24T08:33:54.052Z,94727.00
2022-11-24T08:34:04.370Z,94727.00
2022-11-24T08:34:32.334Z,94725.00
2022-11-24T08:34:47.907Z,94725.00
2022-11-24T08:34:49.006Z,94727.00
2022-11-24T08:35:19.424Z,94725.00
2022-11-24T08:35:21.749Z,94728.00
2022-11-24T08:35:34.321Z,94727.00
2022-11-24T12:24:57.795Z,94985.00
2022-11-24T12:25:12.663Z,94987.00
2022-11-24T12:25:27.672Z,94985.00
2022-11-24T12:25:42.663Z,94983.00
2022-11-24T12:25:57.702Z,94983.00
2022-11-24T12:26:12.718Z,94983.00
2022-11-24T12:26:27.642Z,94981.00
2022-11-24T12:26:42.647Z,94981.00
2022-11-24T12:26:57.701Z,94977.00
2022-11-24T12:27:14.810Z,94981.00
2022-11-24T12:27:28.660Z,94977.00
2022-11-24T12:27:42.637Z,94979.00
2022-11-24T12:27:57.646Z,94977.00
2022-11-24T12:28:12.652Z,94977.00
2022-11-24T12:28:27.625Z,94979.00
2022-11-24T12:28:42.636Z,94977.00
2022-11-24T12:28:57.619Z,94977.00
2022-11-24T12:29:12.638Z,94977.00
2022-11-24T12:29:27.659Z,94981.00
2022-11-24T12:29:42.656Z,94979.00
2022-11-24T12:29:57.645Z,94981.00
2022-11-24T12:30:12.788Z,94981.00
2022-11-24T12:30:27.689Z,94981.00
2022-11-24T12:30:42.639Z,94979.00
2022-11-24T12:30:57.746Z,94977.00
2022-11-24T12:31:12.749Z,94977.00
2022-11-24T12:31:27.816Z,94977.00
2022-11-24T12:31:42.677Z,94976.00
2022-11-24T12:31:57.605Z,94976.00
2022-11-24T12:32:12.601Z,94974.00
2022-11-24T12:32:27.584Z,94974.00
2022-11-24T12:32:42.610Z,94976.00
2022-11-24T12:32:57.628Z,94974.00
2022-11-24T12:33:12.651Z,94974.00
2022-11-24T12:33:27.626Z,94972.00
2022-11-24T12:33:47.582Z,94976.00
2022-11-24T12:34:01.392Z,94977.00
2022-11-24T12:34:12.626Z,94976.00
2022-11-24T12:34:27.593Z,94976.00
2022-11-24T12:34:42.599Z,94976.00
2022-11-24T12:34:57.627Z,94974.00
2022-11-24T12:35:12.595Z,94976.00
2022-11-24T12:35:27.580Z,94976.00
2022-11-24T12:35:42.640Z,94977.00
2022-11-24T12:35:57.619Z,94974.00
2022-11-24T12:36:12.621Z,94974.00
2022-11-24T12:36:27.594Z,94974.00
2022-11-24T12:36:42.571Z,94972.00
2022-11-24T12:36:57.589Z,94974.00
2022-11-24T12:37:12.616Z,94972.00
2022-11-24T12:37:27.610Z,94972.00
2022-11-24T12:37:42.606Z,94974.00
2022-11-24T12:37:57.599Z,94970.00
2022-11-24T12:38:12.633Z,94970.00
2022-11-24T12:38:27.575Z,94968.00
2022-11-24T12:38:42.574Z,94964.00
2022-11-24T12:38:57.584Z,94960.00
2022-11-24T12:39:12.588Z,94960.00
2022-11-24T12:39:27.605Z,94958.00
2022-11-24T12:39:42.607Z,94956.00
2022-11-24T12:39:57.545Z,94954.00
2022-11-24T12:40:12.598Z,94952.00
2022-11-24T12:40:27.586Z,94954.00
2022-11-24T12:40:46.838Z,94958.00
2022-11-24T12:41:18.073Z,94958.00
2022-11-24T12:41:43.538Z,94958.00
2022-11-24T12:41:43.956Z,94960.00
2022-11-24T12:41:57.591Z,94960.00
2022-11-24T12:42:12.561Z,94960.00
2022-11-24T12:42:27.544Z,94960.00
2022-11-24T12:42:42.554Z,94964.00
2022-11-24T12:42:57.553Z,94966.00
2022-11-24T12:43:12.548Z,94962.00
2022-11-24T12:43:27.570Z,94966.00
2022-11-24T12:43:42.571Z,94966.00
2022-11-24T12:43:57.539Z,94968.00
2022-11-24T12:44:12.559Z,94968.00
2022-11-24T12:44:27.535Z,94966.00
2022-11-24T12:44:42.573Z,94966.00
2022-11-24T12:44:57.544Z,94968.00
2022-11-24T12:45:12.557Z,94968.00
2022-11-24T12:45:27.553Z,94968.00
2022-11-24T12:45:42.510Z,94970.00
2022-11-24T12:45:57.550Z,94972.00
2022-11-24T12:46:17.263Z,94970.00
2022-11-24T12:46:28.614Z,94974.00
2022-11-24T12:46:42.581Z,94974.00
2022-11-24T12:46:57.566Z,94972.00
2022-11-24T12:47:12.727Z,94974.00
2022-11-24T12:47:27.538Z,94974.00
2022-11-24T12:47:42.555Z,94974.00
2022-11-24T12:47:57.525Z,94974.00
2022-11-24T12:48:12.515Z,94974.00
2022-11-24T12:48:27.515Z,94974.00
2022-11-24T12:48:42.523Z,94977.00
2022-11-24T12:48:57.555Z,94977.00
2022-11-24T12:49:12.528Z,94976.00
2022-11-24T12:49:27.513Z,94976.00
2022-11-24T12:49:42.520Z,94977.00
2022-11-24T12:49:57.541Z,94974.00
2022-11-24T12:50:12.481Z,94976.00
2022-11-24T12:50:27.520Z,94976.00
2022-11-24T12:50:42.771Z,94972.00
2022-11-24T12:50:57.517Z,94972.00
2022-11-24T12:51:12.520Z,94972.00
2022-11-24T12:51:27.511Z,94974.00
2022-11-24T12:51:42.530Z,94976.00
2022-11-24T12:51:57.516Z,94977.00
2022-11-24T12:52:12.488Z,94976.00
2022-11-24T12:52:27.507Z,94977.00
2022-11-24T12:52:42.507Z,94976.00
2022-11-24T12:52:59.073Z,94976.00
2022-11-24T12:53:12.534Z,94977.00
2022-11-24T12:53:27.510Z,94974.00
2022-11-24T12:53:42.482Z,94979.00
2022-11-24T12:53:57.491Z,94977.00
2022-11-24T12:54:12.487Z,94977.00
2022-11-24T12:54:27.522Z,94981.00
2022-11-24T12:54:42.489Z,94983.00
2022-11-24T12:54:57.504Z,94983.00
2022-11-24T12:55:12.503Z,94979.00
2022-11-24T12:55:27.476Z,94979.00
2022-11-24T12:55:42.490Z,94979.00
2022-11-24T12:55:57.510Z,94979.00
2022-11-24T12:56:12.494Z,94981.00
2022-11-24T12:56:27.499Z,94977.00
2022-11-24T12:56:42.504Z,94979.00
2022-11-24T12:56:57.478Z,94977.00
2022-11-24T12:57:12.511Z,94976.00
2022-11-24T12:57:27.487Z,94979.00
2022-11-24T12:57:42.497Z,94981.00
2022-11-24T12:57:57.479Z,94985.00
2022-11-24T12:58:12.486Z,94983.00
2022-11-24T12:58:27.520Z,94987.00
2022-11-24T12:58:42.479Z,94987.00
2022-11-24T12:58:57.505Z,94985.00
2022-11-24T12:59:12.462Z,94985.00
2022-11-24T12:59:27.509Z,94985.00
2022-11-24T12:59:42.455Z,94985.00
2022-11-24T12:59:57.478Z,94985.00
2022-11-24T13:00:12.469Z,94985.00
2022-11-24T13:00:27.481Z,94985.00
2022-11-24T13:00:42.491Z,94979.00
2022-11-24T13:00:57.433Z,94989.00
2022-11-24T13:01:16.418Z,94987.00
2022-11-24T13:01:27.482Z,94987.00
2022-11-24T13:01:42.524Z,94985.00
2022-11-24T13:01:57.582Z,94991.00
2022-11-24T13:02:12.505Z,94989.00
2022-11-24T13:02:27.530Z,94987.00
2022-11-24T13:02:42.569Z,94981.00
2022-11-24T13:02:57.576Z,94985.00
2022-11-24T13:03:12.507Z,94985.00
2022-11-24T13:03:27.435Z,94991.00
2022-11-24T13:03:42.433Z,94991.00
2022-11-24T13:03:57.445Z,94993.00
2022-11-24T13:04:12.461Z,94991.00
2022-11-24T13:04:27.452Z,94991.00
2022-11-24T13:04:42.466Z,94991.00
2022-11-24T13:04:57.432Z,94993.00
2022-11-24T13:05:12.447Z,94991.00
2022-11-24T13:05:27.426Z,94997.00
2022-11-24T13:05:42.421Z,94981.00
2022-11-24T13:05:57.443Z,94991.00
2022-11-24T13:06:12.448Z,94995.00
2022-11-24T13:06:27.451Z,94993.00
2022-11-24T13:06:48.803Z,94995.00
2022-11-24T13:06:58.437Z,94993.00
2022-11-24T13:07:12.511Z,94995.00
2022-11-24T13:19:00.731Z,95001.00
2022-11-24T13:19:15.645Z,95001.00
2022-11-24T13:19:30.742Z,95003.00
2022-11-24T13:19:45.662Z,95005.00
2022-11-24T13:20:00.670Z,95001.00
2022-11-24T13:20:15.659Z,95003.00
2022-11-24T13:20:30.670Z,95005.00
2022-11-24T13:20:45.680Z,95003.00
2022-11-24T13:21:00.671Z,95005.00
2022-11-24T13:21:15.675Z,95005.00
2022-11-24T13:21:30.633Z,95003.00
2022-11-24T13:21:45.666Z,95003.00
2022-11-24T13:22:00.664Z,95001.00
2022-11-24T13:22:15.663Z,95003.00
2022-11-24T13:22:30.634Z,95005.00
2022-11-24T13:22:45.637Z,95005.00
2022-11-24T13:23:00.660Z,95007.00
2022-11-24T13:23:15.610Z,95007.00
2022-11-24T13:23:30.837Z,95007.00
2022-11-24T13:23:45.651Z,95007.00
2022-11-24T13:24:00.661Z,95007.00
2022-11-24T13:24:30.639Z,95007.00
2022-11-24T13:24:45.660Z,95007.00
2022-11-24T13:25:00.627Z,95007.00
2022-11-24T13:25:15.620Z,95005.00
2022-11-24T13:25:30.619Z,95007.00
2022-11-24T13:25:45.625Z,95007.00
2022-11-24T13:26:00.717Z,95001.00
2022-11-24T13:26:15.606Z,95005.00
2022-11-24T13:26:30.637Z,95005.00
2022-11-24T13:26:45.646Z,95003.00
2022-11-24T13:27:00.641Z,95003.00
2022-11-24T13:27:15.963Z,95005.00
2022-11-24T13:27:30.616Z,95005.00
2022-11-24T13:27:45.639Z,95003.00
2022-11-24T13:28:00.633Z,95001.00
2022-11-24T13:28:20.345Z,94999.00
2022-11-24T13:29:00.393Z,95003.00
2022-11-24T13:29:03.206Z,95001.00
2022-11-24T13:29:12.924Z,95003.00
2022-11-24T13:29:24.975Z,95001.00
2022-11-24T13:29:31.575Z,95001.00
2022-11-24T13:29:45.622Z,94999.00
2022-11-24T13:30:00.634Z,95003.00
2022-11-24T13:30:15.645Z,95003.00
2022-11-24T13:30:30.608Z,94997.00
2022-11-24T13:30:45.609Z,94999.00
2022-11-24T13:31:00.663Z,95003.00
2022-11-24T13:31:15.680Z,94999.00
2022-11-24T13:31:30.675Z,95001.00
2022-11-24T13:31:45.684Z,95001.00
2022-11-24T13:32:00.603Z,95003.00
2022-11-24T13:32:15.615Z,95003.00
2022-11-24T13:32:30.614Z,95003.00
2022-11-24T13:32:45.606Z,95003.00
2022-11-24T13:33:00.628Z,95001.00
2022-11-24T13:33:17.088Z,95005.00
2022-11-24T13:33:30.793Z,95007.00
2022-11-24T13:33:45.593Z,95005.00
2022-11-24T13:34:00.621Z,95005.00
2022-11-24T13:34:15.663Z,95003.00
2022-11-24T13:34:30.569Z,95007.00
2022-11-24T13:34:45.622Z,95007.00
2022-11-24T13:35:00.596Z,95005.00
2022-11-24T13:35:15.747Z,95003.00
2022-11-24T13:35:30.577Z,95003.00
2022-11-24T13:35:45.698Z,95005.00
2022-11-24T13:36:00.590Z,95005.00
2022-11-24T13:36:15.591Z,95003.00
2022-11-24T13:36:30.630Z,95003.00
2022-11-24T13:36:45.563Z,95001.00
2022-11-24T13:37:26.413Z,95001.00
2022-11-24T13:37:31.681Z,95003.00
2022-11-24T13:37:35.773Z,95003.00
2022-11-24T13:37:45.558Z,95005.00
2022-11-24T13:38:00.567Z,95003.00
2022-11-24T13:38:15.563Z,95001.00
2022-11-24T13:38:30.670Z,95003.00
2022-11-24T13:38:45.673Z,95001.00
2022-11-24T13:39:00.623Z,95001.00
2022-11-24T13:39:15.554Z,94999.00
2022-11-24T13:39:30.575Z,94997.00
2022-11-24T13:39:50.174Z,94997.00
2022-11-24T13:40:01.551Z,94999.00
2022-11-24T13:40:15.572Z,94999.00
2022-11-24T13:40:30.570Z,94999.00
2022-11-24T13:41:13.014Z,94997.00
2022-11-24T13:41:27.090Z,94997.00
2022-11-24T13:41:28.225Z,94999.00
2022-11-24T13:41:31.661Z,94995.00
2022-11-24T13:41:45.655Z,94995.00
2022-11-24T13:42:00.618Z,94997.00
2022-11-24T13:42:42.106Z,94997.00
2022-11-24T13:42:42.235Z,94995.00
2022-11-24T13:42:46.643Z,94995.00
2022-11-24T13:43:00.762Z,94997.00
2022-11-24T13:43:15.587Z,94999.00
2022-11-24T13:43:30.601Z,94997.00
2022-11-24T13:43:45.633Z,94997.00
2022-11-24T13:44:00.639Z,94999.00
2022-11-24T13:44:15.633Z,94997.00
2022-11-24T13:44:30.603Z,94995.00
2022-11-24T13:44:45.616Z,94995.00
2022-11-24T13:45:00.600Z,95001.00
2022-11-24T13:45:15.779Z,94999.00
2022-11-24T13:45:30.609Z,94999.00
2022-11-24T13:45:45.605Z,94995.00
2022-11-24T13:46:00.605Z,94995.00
2022-11-24T13:46:15.792Z,94995.00
2022-11-24T13:46:30.659Z,94993.00
2022-11-24T13:46:45.706Z,94995.00
2022-11-24T13:47:05.743Z,94995.00
2022-11-24T13:47:16.670Z,94993.00
2022-11-24T13:47:30.607Z,94993.00
2022-11-24T13:47:45.700Z,94997.00
2022-11-24T13:48:00.617Z,94993.00
2022-11-24T13:48:15.636Z,94995.00
2022-11-24T13:48:30.595Z,94995.00
2022-11-24T13:48:45.736Z,94995.00
2022-11-24T13:49:00.561Z,94995.00
2022-11-24T13:49:15.871Z,94995.00
2022-11-24T13:49:30.859Z,94995.00
2022-11-24T13:49:45.612Z,94997.00
2022-11-24T13:50:00.584Z,94993.00
2022-11-24T13:50:15.583Z,94995.00
2022-11-24T13:50:30.562Z,94995.00
2022-11-24T13:50:45.575Z,94993.00
2022-11-24T13:51:00.627Z,94995.00
2022-11-24T13:51:15.569Z,94993.00
2022-11-24T13:51:30.615Z,94995.00
2022-11-24T13:51:45.572Z,94993.00
2022-11-24T13:52:00.596Z,94995.00
2022-11-24T13:52:15.553Z,94995.00
2022-11-24T13:52:31.321Z,94993.00
2022-11-24T13:52:45.528Z,94995.00
2022-11-24T13:53:00.561Z,94995.00
2022-11-24T13:53:15.888Z,94999.00
2022-11-24T13:53:30.577Z,94997.00
2022-11-24T13:53:45.557Z,94999.00
2022-11-24T13:54:00.557Z,95001.00
2022-11-24T13:54:15.561Z,94999.00
2022-11-24T13:54:30.564Z,94997.00
2022-11-24T13:54:45.545Z,94997.00
2022-11-24T13:55:00.525Z,94999.00
2022-11-24T13:55:15.544Z,94995.00
2022-11-24T13:55:30.558Z,95001.00
2022-11-24T13:55:45.534Z,95001.00
2022-11-24T13:56:00.684Z,95001.00
2022-11-24T13:56:15.533Z,94999.00
2022-11-24T13:56:30.527Z,95001.00
2022-11-24T13:56:45.517Z,95001.00
2022-11-24T13:57:00.515Z,95007.00
2022-11-24T13:57:15.673Z,95005.00
2022-11-24T13:57:30.536Z,95007.00
2022-11-24T13:57:45.838Z,95009.00
2022-11-24T13:58:00.539Z,95009.00
2022-11-24T13:58:15.576Z,95009.00
2022-11-24T13:58:31.320Z,95009.00
2022-11-24T13:58:45.561Z,95011.00
2022-11-24T13:59:01.277Z,95007.00
2022-11-24T13:59:15.538Z,95013.00
2022-11-24T13:59:30.582Z,95013.00
2022-11-24T13:59:45.520Z,95011.00
2022-11-24T14:00:00.541Z,95011.00
2022-11-24T14:00:15.511Z,95013.00
2022-11-24T14:00:30.533Z,95013.00
2022-11-24T14:00:45.532Z,95011.00
2022-11-24T14:01:00.538Z,95013.00
2022-11-24T14:01:15.584Z,95013.00
2022-11-24T14:01:30.565Z,95015.00
2022-11-24T14:01:45.591Z,95015.00
2022-11-24T14:02:00.604Z,95015.00
2022-11-24T14:02:15.574Z,95015.00
2022-11-24T14:02:30.541Z,95015.00
2022-11-24T14:02:45.597Z,95017.00
2022-11-24T14:03:00.630Z,95017.00
2022-11-24T14:03:15.584Z,95017.00
2022-11-24T14:03:30.513Z,95019.00
2022-11-24T14:04:07.253Z,95019.00
2022-11-24T14:04:32.822Z,95019.00
2022-11-24T14:04:43.165Z,95017.00
2022-11-24T14:04:45.980Z,95019.00
2022-11-24T14:05:00.802Z,95019.00
2022-11-24T14:05:15.773Z,95017.00
2022-11-24T14:05:30.742Z,95019.00
2022-11-24T14:05:46.573Z,95019.00
2022-11-24T14:06:00.858Z,95023.00
2022-11-24T14:06:15.839Z,95019.00
2022-11-24T14:06:30.742Z,95021.00
2022-11-24T14:06:45.805Z,95021.00
2022-11-24T14:07:16.789Z,95024.00
2022-11-24T14:07:31.609Z,95021.00
2022-11-24T14:07:47.529Z,95021.00
2022-11-24T14:08:01.715Z,95024.00
2022-11-24T14:08:15.759Z,95023.00
2022-11-24T14:08:31.023Z,95024.00
2022-11-24T14:08:45.741Z,95024.00
2022-11-24T14:09:00.749Z,95024.00
2022-11-24T14:09:15.712Z,95028.00
2022-11-24T14:09:30.692Z,95024.00
2022-11-24T14:09:45.753Z,95026.00
2022-11-24T14:10:00.735Z,95028.00
2022-11-24T14:10:15.683Z,95028.00
2022-11-24T14:10:30.719Z,95028.00
2022-11-24T14:10:46.025Z,95026.00
2022-11-24T14:11:00.709Z,95028.00
2022-11-24T14:11:15.708Z,95028.00
2022-11-24T14:11:30.675Z,95030.00
2022-11-24T14:11:45.690Z,95030.00
2022-11-24T14:12:00.709Z,95030.00
2022-11-24T14:12:15.736Z,95028.00
2022-11-24T14:12:30.722Z,95026.00
2022-11-24T14:12:45.807Z,95030.00
2022-11-24T14:13:00.684Z,95026.00
2022-11-24T14:13:15.699Z,95026.00
2022-11-24T14:13:30.706Z,95028.00
2022-11-24T14:13:45.857Z,95026.00
2022-11-24T14:14:00.688Z,95030.00
2022-11-24T14:14:17.700Z,95032.00
2022-11-24T14:14:30.724Z,95030.00
2022-11-24T14:14:45.692Z,95030.00
2022-11-24T14:15:00.701Z,95030.00
2022-11-24T14:15:15.650Z,95032.00
2022-11-24T14:15:30.677Z,95028.00
2022-11-24T14:15:45.718Z,95032.00
2022-11-24T14:16:00.689Z,95030.00
2022-11-24T14:16:15.698Z,95030.00
2022-11-24T14:16:30.713Z,95032.00
2022-11-24T14:16:45.688Z,95032.00
2022-11-24T14:17:00.680Z,95028.00
2022-11-24T14:17:15.697Z,95026.00
2022-11-24T14:17:30.656Z,95032.00
2022-11-24T14:17:45.659Z,95026.00
2022-11-24T14:18:00.663Z,95030.00
2022-11-24T14:18:15.659Z,95032.00
2022-11-24T14:18:30.665Z,95028.00
2022-11-24T14:18:45.690Z,95028.00
2022-11-24T14:19:00.689Z,95030.00
2022-11-24T14:19:15.646Z,95030.00
2022-11-24T14:19:32.314Z,95030.00
2022-11-24T14:19:45.671Z,95028.00
2022-11-24T14:20:00.675Z,95030.00
2022-11-24T14:20:15.668Z,95028.00
2022-11-24T14:20:30.673Z,95030.00
2022-11-24T14:20:45.653Z,95028.00
2022-11-24T14:21:00.712Z,95026.00
2022-11-24T14:21:15.631Z,95030.00
2022-11-24T14:21:30.639Z,95028.00
2022-11-24T14:21:45.670Z,95024.00
2022-11-24T14:22:00.672Z,95026.00
2022-11-24T14:22:15.681Z,95026.00
2022-11-24T14:22:30.685Z,95024.00
2022-11-24T14:22:45.660Z,95024.00
2022-11-24T14:23:00.665Z,95024.00
2022-11-24T14:23:15.630Z,95024.00
2022-11-24T14:23:30.630Z,95023.00
2022-11-24T14:23:45.620Z,95023.00
2022-11-24T14:24:00.622Z,95023.00
2022-11-24T14:24:15.638Z,95024.00
2022-11-24T14:24:30.637Z,95017.00
2022-11-24T14:24:45.807Z,95024.00
2022-11-24T14:25:00.638Z,95021.00
2022-11-24T14:25:15.638Z,95024.00
2022-11-24T14:25:30.619Z,95021.00
2022-11-24T14:25:45.647Z,95024.00
2022-11-24T14:26:00.681Z,95024.00
2022-11-24T14:26:15.639Z,95024.00
2022-11-24T14:26:30.666Z,95021.00
2022-11-24T14:26:45.580Z,95023.00
2022-11-24T14:27:00.609Z,95026.00
2022-11-24T14:27:15.608Z,95026.00
2022-11-24T14:27:30.609Z,95021.00
2022-11-24T14:27:45.645Z,95026.00
2022-11-24T14:28:01.042Z,95034.00
2022-11-24T14:28:15.670Z,95032.00
2022-11-24T14:28:30.672Z,95038.00
2022-11-24T14:28:45.679Z,95038.00
2022-11-24T14:29:00.618Z,95032.00
2022-11-24T14:29:15.881Z,95028.00
2022-11-24T14:29:30.639Z,95024.00
2022-11-24T14:29:48.830Z,95028.00
2022-11-24T14:30:01.656Z,95024.00
2022-11-24T14:30:15.617Z,95019.00
2022-11-24T14:30:30.627Z,95023.00
2022-11-24T14:30:45.587Z,95028.00
2022-11-24T14:31:00.646Z,95024.00
2022-11-24T14:31:15.652Z,95026.00
2022-11-24T14:31:30.625Z,95023.00
2022-11-24T14:31:45.687Z,95021.00
2022-11-24T14:32:00.617Z,95023.00
2022-11-24T14:32:15.618Z,95021.00
2022-11-24T14:32:30.611Z,95021.00
2022-11-24T14:32:45.583Z,95019.00
2022-11-24T14:33:00.583Z,95019.00
2022-11-24T14:33:15.686Z,95019.00
2022-11-24T14:33:30.614Z,95019.00
2022-11-24T14:33:45.608Z,95017.00
2022-11-24T14:34:00.589Z,95017.00
2022-11-24T14:34:15.982Z,95017.00
2022-11-24T14:34:30.746Z,95021.00
2022-11-24T14:34:45.598Z,95021.00
2022-11-24T14:35:00.649Z,95019.00
2022-11-24T14:35:15.699Z,95019.00
2022-11-24T14:35:30.705Z,95019.00
2022-11-24T14:35:45.639Z,95021.00
2022-11-24T14:36:00.594Z,95021.00
2022-11-24T14:36:15.705Z,95021.00
2022-11-24T14:36:30.619Z,95021.00
2022-11-24T14:36:45.631Z,95023.00
2022-11-24T14:37:00.608Z,95024.00
2022-11-24T14:37:15.621Z,95023.00
2022-11-24T14:37:30.657Z,95024.00
2022-11-24T14:37:45.569Z,95023.00
2022-11-24T14:38:01.018Z,95023.00
2022-11-24T14:38:15.569Z,95024.00
2022-11-24T14:38:30.574Z,95028.00
2022-11-24T14:38:45.580Z,95026.00
2022-11-24T14:39:00.550Z,95026.00
2022-11-24T14:39:15.604Z,95032.00
2022-11-24T14:39:30.567Z,95030.00
2022-11-24T14:39:45.544Z,95032.00
2022-11-24T14:40:00.577Z,95032.00
2022-11-24T14:40:15.549Z,95030.00
2022-11-24T14:40:30.546Z,95032.00
2022-11-24T14:40:45.569Z,95032.00
2022-11-24T14:41:00.551Z,95032.00
2022-11-24T14:41:15.700Z,95032.00
2022-11-24T14:41:30.504Z,95032.00
2022-11-24T14:41:45.532Z,95030.00
2022-11-24T14:42:00.567Z,95030.00
2022-11-24T14:42:15.504Z,95032.00
2022-11-24T14:42:30.601Z,95032.00
2022-11-24T14:42:45.522Z,95030.00
2022-11-24T14:43:00.544Z,95034.00
2022-11-24T14:43:15.524Z,95034.00
2022-11-24T14:43:30.536Z,95036.00
2022-11-24T14:43:45.539Z,95034.00
2022-11-24T14:44:00.543Z,95038.00
2022-11-24T14:44:15.657Z,95038.00
2022-11-24T14:44:30.511Z,95038.00
2022-11-24T14:44:45.513Z,95038.00
2022-11-24T14:45:00.562Z,95038.00
2022-11-24T14:45:15.522Z,95040.00
2022-11-24T14:45:30.533Z,95042.00
2022-11-24T14:45:45.520Z,95040.00
2022-11-24T14:46:00.563Z,95036.00
2022-11-24T14:46:15.547Z,95036.00
2022-11-24T14:46:30.714Z,95040.00
2022-11-24T14:46:45.558Z,95036.00
2022-11-24T14:47:00.597Z,95038.00
2022-11-24T14:47:15.501Z,95040.00
2022-11-24T14:47:32.037Z,95040.00
2022-11-24T14:47:45.590Z,95040.00
2022-11-24T14:48:00.511Z,95042.00
2022-11-24T14:48:15.514Z,95038.00
2022-11-24T14:48:30.521Z,95040.00
2022-11-24T14:48:45.521Z,95040.00
2022-11-24T14:49:00.513Z,95042.00
2022-11-24T14:49:15.589Z,95042.00
2022-11-24T14:49:30.507Z,95040.00
2022-11-24T14:49:45.506Z,95042.00
2022-11-24T14:50:00.587Z,95040.00
2022-11-24T14:50:15.571Z,95044.00
2022-11-24T14:50:30.532Z,95042.00
2022-11-24T14:50:45.498Z,95044.00
2022-11-24T14:51:00.498Z,95040.00
2022-11-24T14:51:15.499Z,95044.00
2022-11-24T14:51:30.488Z,95044.00
2022-11-24T14:51:45.494Z,95044.00
2022-11-24T14:52:00.478Z,95046.00
2022-11-24T14:52:15.494Z,95044.00
2022-11-24T14:52:30.475Z,95046.00
2022-11-24T14:52:45.490Z,95044.00
2022-11-24T14:53:00.523Z,95044.00
2022-11-24T14:53:15.483Z,95040.00
2022-11-24T14:53:30.501Z,95040.00
2022-11-24T14:53:45.477Z,95038.00
2022-11-24T14:54:00.477Z,95040.00
2022-11-24T14:54:15.560Z,95042.00
2022-11-24T14:54:30.485Z,95044.00
2022-11-24T14:54:45.480Z,95042.00
2022-11-24T14:55:17.365Z,95042.00
2022-11-24T14:55:22.878Z,95038.00
2022-11-24T14:55:31.471Z,95042.00
2022-11-24T14:55:45.468Z,95044.00
2022-11-24T14:56:00.450Z,95040.00
2022-11-24T14:56:15.435Z,95038.00
2022-11-24T14:56:30.475Z,95044.00
2022-11-24T14:56:45.475Z,95044.00
2022-11-24T14:57:00.448Z,95044.00
2022-11-24T14:57:15.479Z,95042.00
2022-11-24T14:57:30.450Z,95042.00
2022-11-24T14:57:45.430Z,95044.00
2022-11-24T14:58:00.430Z,95044.00
2022-11-24T14:58:15.540Z,95044.00
2022-11-24T14:58:30.460Z,95044.00
2022-11-24T14:58:45.455Z,95042.00
2022-11-24T14:59:00.463Z,95044.00
2022-11-24T14:59:15.523Z,95044.00
2022-11-24T14:59:30.477Z,95042.00
2022-11-24T14:59:45.423Z,95044.00
2022-11-24T15:00:00.426Z,95044.00
2022-11-24T15:00:15.433Z,95044.00
2022-11-24T15:00:30.534Z,95046.00
2022-11-24T15:00:45.493Z,95046.00
2022-11-24T15:01:00.496Z,95046.00
2022-11-24T15:01:15.461Z,95046.00
2022-11-24T15:01:30.443Z,95046.00
2022-11-24T15:01:45.491Z,95048.00
2022-11-24T15:02:00.478Z,95046.00
2022-11-24T15:02:15.477Z,95048.00
2022-11-24T15:02:30.552Z,95046.00
2022-11-24T15:02:45.452Z,95050.00
2022-11-24T15:03:00.445Z,95048.00
2022-11-24T15:03:15.448Z,95048.00
2022-11-24T15:03:30.500Z,95050.00
2022-11-24T15:03:45.410Z,95050.00
2022-11-24T15:04:00.436Z,95048.00
2022-11-24T15:04:32.388Z,95048.00
2022-11-24T15:05:02.120Z,95048.00
2022-11-24T15:05:02.214Z,95044.00
2022-11-24T15:05:03.132Z,95046.00
2022-11-24T15:05:15.400Z,95046.00
2022-11-24T15:05:30.407Z,95046.00
2022-11-24T15:05:45.421Z,95048.00
2022-11-24T15:06:00.431Z,95046.00
2022-11-24T15:06:15.414Z,95046.00
2022-11-24T15:06:30.409Z,95044.00
2022-11-24T15:06:45.440Z,95044.00
2022-11-24T15:07:00.466Z,95044.00
2022-11-24T15:07:15.514Z,95044.00
2022-11-24T15:07:30.415Z,95048.00
2022-11-24T15:07:45.513Z,95048.00
2022-11-24T15:08:00.541Z,95050.00
2022-11-24T15:08:15.404Z,95050.00
2022-11-24T15:08:30.496Z,95050.00
2022-11-24T15:08:45.411Z,95048.00
2022-11-24T15:09:00.414Z,95050.00
2022-11-24T15:09:15.457Z,95052.00
2022-11-24T15:09:30.496Z,95054.00
2022-11-24T15:09:45.380Z,95056.00
2022-11-24T15:10:00.402Z,95056.00
2022-11-24T15:10:15.396Z,95054.00
2022-11-24T15:10:33.642Z,95056.00
2022-11-24T15:10:45.404Z,95056.00
2022-11-24T15:11:00.401Z,95058.00
2022-11-24T15:11:15.394Z,95056.00
2022-11-24T15:11:30.369Z,95054.00
2022-11-24T15:11:45.368Z,95056.00
2022-11-24T15:12:00.384Z,95058.00
2022-11-24T15:12:15.385Z,95054.00
2022-11-24T15:12:30.385Z,95058.00
2022-11-24T15:12:45.389Z,95060.00
2022-11-24T15:13:00.391Z,95062.00
2022-11-24T15:13:15.375Z,95060.00
2022-11-24T15:13:30.350Z,95062.00
2022-11-24T15:13:45.383Z,95062.00
2022-11-24T15:14:00.384Z,95066.00
2022-11-24T15:14:15.381Z,95064.00
2022-11-24T15:14:30.444Z,95066.00
2022-11-24T15:14:45.434Z,95070.00
2022-11-24T15:15:00.395Z,95068.00
2022-11-24T15:15:15.337Z,95070.00
2022-11-24T15:15:30.340Z,95072.00
2022-11-24T15:15:45.330Z,95070.00
2022-11-24T15:16:02.971Z,95072.00
2022-11-24T15:16:15.446Z,95074.00
2022-11-24T15:16:30.700Z,95074.00
2022-11-24T15:16:45.428Z,95076.00
2022-11-24T15:17:00.356Z,95076.00
2022-11-24T15:17:15.338Z,95074.00
2022-11-24T15:17:30.344Z,95078.00
2022-11-24T15:17:45.362Z,95076.00
2022-11-24T15:18:00.365Z,95078.00
2022-11-24T15:18:15.355Z,95078.00
2022-11-24T15:18:30.348Z,95078.00
2022-11-24T15:18:45.349Z,95078.00
2022-11-24T15:19:00.346Z,95081.00
2022-11-24T15:19:15.355Z,95076.00
2022-11-24T15:19:30.333Z,95078.00
2022-11-24T15:19:45.563Z,95078.00
2022-11-24T15:20:00.335Z,95079.00
2022-11-24T15:20:15.382Z,95078.00
2022-11-24T15:20:30.370Z,95078.00
2022-11-24T15:20:45.390Z,95078.00
2022-11-24T15:21:00.304Z,95081.00
2022-11-24T15:21:19.163Z,95079.00
2022-11-24T15:21:30.316Z,95079.00
2022-11-24T15:21:45.556Z,95081.00
2022-11-24T15:22:00.332Z,95083.00
2022-11-24T15:22:15.324Z,95081.00
2022-11-24T15:22:30.341Z,95083.00
2022-11-24T15:22:45.327Z,95083.00
2022-11-24T15:23:00.295Z,95083.00
2022-11-24T15:23:15.328Z,95083.00
2022-11-24T15:23:30.289Z,95087.00
2022-11-24T15:23:45.294Z,95089.00
2022-11-24T15:24:00.314Z,95089.00
2022-11-24T15:24:15.314Z,95091.00
2022-11-24T15:24:30.335Z,95087.00
2022-11-24T15:24:45.301Z,95089.00
2022-11-24T15:25:00.289Z,95089.00
2022-11-24T15:25:15.369Z,95087.00
2022-11-24T15:25:30.297Z,95085.00
2022-11-24T15:25:45.308Z,95087.00
2022-11-24T15:26:00.309Z,95091.00
2022-11-24T15:26:15.296Z,95085.00
2022-11-24T15:26:34.093Z,95085.00
2022-11-24T15:26:46.311Z,95089.00
2022-11-24T15:27:00.275Z,95087.00
2022-11-24T15:27:15.260Z,95087.00